sensor_id;sensor_type;location;lat;lon;timestamp;temperature;humidity
17726;DHT22;8983;53.156;17.960;2023-05-29T00:02:21;16.00;78.30
17726;DHT22;8983;53.156;17.960;2023-05-29T00:04:49;15.90;78.50
17726;DHT22;8983;53.156;17.960;2023-05-29T00:07:18;15.90;78.80
17726;DHT22;8983;53.156;17.960;2023-05-29T00:09:46;15.80;78.90
17726;DHT22;8983;53.156;17.960;2023-05-29T00:12:14;15.80;79.10
17726;DHT22;8983;53.156;17.960;2023-05-29T00:14:43;15.80;79.20
17726;DHT22;8983;53.156;17.960;2023-05-29T00:17:11;15.70;79.20
17726;DHT22;8983;53.156;17.960;2023-05-29T00:19:42;15.60;79.40
17726;DHT22;8983;53.156;17.960;2023-05-29T00:22:10;15.60;79.60
17726;DHT22;8983;53.156;17.960;2023-05-29T00:24:39;15.40;79.80
17726;DHT22;8983;53.156;17.960;2023-05-29T00:27:09;15.50;79.90
17726;DHT22;8983;53.156;17.960;2023-05-29T00:29:37;15.40;80.10
17726;DHT22;8983;53.156;17.960;2023-05-29T00:32:07;15.40;80.20
17726;DHT22;8983;53.156;17.960;2023-05-29T00:34:35;15.40;80.40
17726;DHT22;8983;53.156;17.960;2023-05-29T00:37:03;15.30;80.50
17726;DHT22;8983;53.156;17.960;2023-05-29T00:39:32;15.30;80.60
17726;DHT22;8983;53.156;17.960;2023-05-29T00:42:00;15.30;80.70
17726;DHT22;8983;53.156;17.960;2023-05-29T00:44:29;15.30;80.90
17726;DHT22;8983;53.156;17.960;2023-05-29T00:46:57;15.30;80.90
17726;DHT22;8983;53.156;17.960;2023-05-29T00:49:26;15.20;80.90
17726;DHT22;8983;53.156;17.960;2023-05-29T00:51:55;15.20;81.00
17726;DHT22;8983;53.156;17.960;2023-05-29T00:54:26;15.10;81.10
17726;DHT22;8983;53.156;17.960;2023-05-29T00:56:57;15.10;81.50
17726;DHT22;8983;53.156;17.960;2023-05-29T00:59:26;15.00;81.40
17726;DHT22;8983;53.156;17.960;2023-05-29T01:01:55;15.10;81.40
17726;DHT22;8983;53.156;17.960;2023-05-29T01:04:27;15.00;81.50
17726;DHT22;8983;53.156;17.960;2023-05-29T01:06:55;15.00;81.70
17726;DHT22;8983;53.156;17.960;2023-05-29T01:09:24;14.90;82.00
17726;DHT22;8983;53.156;17.960;2023-05-29T01:11:57;14.80;82.30
17726;DHT22;8983;53.156;17.960;2023-05-29T01:14:36;14.80;82.80
17726;DHT22;8983;53.156;17.960;2023-05-29T01:17:19;14.70;83.00
17726;DHT22;8983;53.156;17.960;2023-05-29T01:20:11;14.70;83.30
17726;DHT22;8983;53.156;17.960;2023-05-29T01:22:58;14.60;83.50
17726;DHT22;8983;53.156;17.960;2023-05-29T01:25:46;14.60;83.50
17726;DHT22;8983;53.156;17.960;2023-05-29T01:28:21;14.60;83.50
17726;DHT22;8983;53.156;17.960;2023-05-29T01:30:50;14.60;83.40
17726;DHT22;8983;53.156;17.960;2023-05-29T01:33:19;14.50;83.40
17726;DHT22;8983;53.156;17.960;2023-05-29T01:35:47;14.50;83.50
17726;DHT22;8983;53.156;17.960;2023-05-29T01:38:15;14.50;83.50
17726;DHT22;8983;53.156;17.960;2023-05-29T01:40:44;14.50;83.50
17726;DHT22;8983;53.156;17.960;2023-05-29T01:43:12;14.40;83.40
17726;DHT22;8983;53.156;17.960;2023-05-29T01:45:42;14.40;83.60
17726;DHT22;8983;53.156;17.960;2023-05-29T01:48:10;14.40;83.80
17726;DHT22;8983;53.156;17.960;2023-05-29T01:50:38;14.40;83.90
17726;DHT22;8983;53.156;17.960;2023-05-29T01:53:10;14.40;84.20
17726;DHT22;8983;53.156;17.960;2023-05-29T01:55:38;14.30;84.30
17726;DHT22;8983;53.156;17.960;2023-05-29T01:58:07;14.20;84.30
17726;DHT22;8983;53.156;17.960;2023-05-29T02:00:35;14.10;84.40
17726;DHT22;8983;53.156;17.960;2023-05-29T02:03:04;14.10;84.80
17726;DHT22;8983;53.156;17.960;2023-05-29T02:05:33;14.00;85.70
17726;DHT22;8983;53.156;17.960;2023-05-29T02:08:01;14.00;85.20
17726;DHT22;8983;53.156;17.960;2023-05-29T02:10:29;13.90;85.20
17726;DHT22;8983;53.156;17.960;2023-05-29T02:12:58;13.90;85.40
17726;DHT22;8983;53.156;17.960;2023-05-29T02:15:26;13.80;85.50
17726;DHT22;8983;53.156;17.960;2023-05-29T02:17:55;13.80;86.00
17726;DHT22;8983;53.156;17.960;2023-05-29T02:20:25;13.80;85.90
17726;DHT22;8983;53.156;17.960;2023-05-29T02:22:54;13.80;86.10
17726;DHT22;8983;53.156;17.960;2023-05-29T02:25:22;13.80;86.10
17726;DHT22;8983;53.156;17.960;2023-05-29T02:27:50;13.80;86.10
17726;DHT22;8983;53.156;17.960;2023-05-29T02:30:18;13.80;86.00
17726;DHT22;8983;53.156;17.960;2023-05-29T02:32:47;13.70;85.80
17726;DHT22;8983;53.156;17.960;2023-05-29T02:35:15;13.70;85.80
17726;DHT22;8983;53.156;17.960;2023-05-29T02:37:46;13.70;86.50
17726;DHT22;8983;53.156;17.960;2023-05-29T02:40:14;13.70;85.70
17726;DHT22;8983;53.156;17.960;2023-05-29T02:42:42;13.60;85.70
17726;DHT22;8983;53.156;17.960;2023-05-29T02:45:10;13.60;90.30
17726;DHT22;8983;53.156;17.960;2023-05-29T02:47:38;13.60;86.00
17726;DHT22;8983;53.156;17.960;2023-05-29T02:50:07;13.60;86.60
17726;DHT22;8983;53.156;17.960;2023-05-29T02:52:35;13.50;86.20
17726;DHT22;8983;53.156;17.960;2023-05-29T02:55:06;13.50;86.40
17726;DHT22;8983;53.156;17.960;2023-05-29T02:57:34;13.50;85.70
17726;DHT22;8983;53.156;17.960;2023-05-29T03:00:03;13.50;86.40
17726;DHT22;8983;53.156;17.960;2023-05-29T03:02:34;13.50;86.40
17726;DHT22;8983;53.156;17.960;2023-05-29T03:05:03;13.50;86.60
17726;DHT22;8983;53.156;17.960;2023-05-29T03:07:31;13.50;86.70
17726;DHT22;8983;53.156;17.960;2023-05-29T03:09:59;13.50;86.90
17726;DHT22;8983;53.156;17.960;2023-05-29T03:12:29;13.50;86.80
17726;DHT22;8983;53.156;17.960;2023-05-29T03:14:57;13.50;86.70
17726;DHT22;8983;53.156;17.960;2023-05-29T03:17:25;13.50;86.90
17726;DHT22;8983;53.156;17.960;2023-05-29T03:19:53;13.50;86.90
17726;DHT22;8983;53.156;17.960;2023-05-29T03:22:21;13.50;87.10
17726;DHT22;8983;53.156;17.960;2023-05-29T03:24:49;13.50;87.30
17726;DHT22;8983;53.156;17.960;2023-05-29T03:27:18;13.50;87.50
17726;DHT22;8983;53.156;17.960;2023-05-29T03:29:48;13.50;87.90
17726;DHT22;8983;53.156;17.960;2023-05-29T03:32:16;13.50;88.40
17726;DHT22;8983;53.156;17.960;2023-05-29T03:34:44;13.40;88.90
17726;DHT22;8983;53.156;17.960;2023-05-29T03:37:12;13.50;89.40
17726;DHT22;8983;53.156;17.960;2023-05-29T03:39:40;13.40;89.90
17726;DHT22;8983;53.156;17.960;2023-05-29T03:42:08;13.40;90.20
17726;DHT22;8983;53.156;17.960;2023-05-29T03:44:36;13.50;90.40
17726;DHT22;8983;53.156;17.960;2023-05-29T03:47:06;13.50;90.90
17726;DHT22;8983;53.156;17.960;2023-05-29T03:49:36;13.50;90.80
17726;DHT22;8983;53.156;17.960;2023-05-29T03:52:04;13.60;90.90
17726;DHT22;8983;53.156;17.960;2023-05-29T03:54:32;13.60;91.00
17726;DHT22;8983;53.156;17.960;2023-05-29T03:57:02;13.70;91.20
17726;DHT22;8983;53.156;17.960;2023-05-29T03:59:30;13.70;91.30
17726;DHT22;8983;53.156;17.960;2023-05-29T04:01:58;13.70;91.40
17726;DHT22;8983;53.156;17.960;2023-05-29T04:04:27;13.70;91.60
17726;DHT22;8983;53.156;17.960;2023-05-29T04:06:56;13.80;91.80
17726;DHT22;8983;53.156;17.960;2023-05-29T04:09:24;13.80;91.90
17726;DHT22;8983;53.156;17.960;2023-05-29T04:11:52;13.80;92.00
17726;DHT22;8983;53.156;17.960;2023-05-29T04:14:21;13.80;92.10
17726;DHT22;8983;53.156;17.960;2023-05-29T04:16:49;13.90;92.20
17726;DHT22;8983;53.156;17.960;2023-05-29T04:19:17;13.90;92.40
17726;DHT22;8983;53.156;17.960;2023-05-29T04:21:47;14.00;92.50
17726;DHT22;8983;53.156;17.960;2023-05-29T04:24:15;14.00;92.70
17726;DHT22;8983;53.156;17.960;2023-05-29T04:26:43;14.10;92.80
17726;DHT22;8983;53.156;17.960;2023-05-29T04:29:11;14.10;92.90
17726;DHT22;8983;53.156;17.960;2023-05-29T04:31:40;14.10;93.00
17726;DHT22;8983;53.156;17.960;2023-05-29T04:34:08;14.20;93.20
17726;DHT22;8983;53.156;17.960;2023-05-29T04:36:37;14.30;93.30
17726;DHT22;8983;53.156;17.960;2023-05-29T04:39:07;14.30;93.50
17726;DHT22;8983;53.156;17.960;2023-05-29T04:41:35;14.40;93.70
17726;DHT22;8983;53.156;17.960;2023-05-29T04:44:04;14.30;93.70
17726;DHT22;8983;53.156;17.960;2023-05-29T04:46:33;14.30;93.80
17726;DHT22;8983;53.156;17.960;2023-05-29T04:49:03;14.40;93.90
17726;DHT22;8983;53.156;17.960;2023-05-29T04:51:31;14.40;94.00
17726;DHT22;8983;53.156;17.960;2023-05-29T04:53:59;14.40;94.10
17726;DHT22;8983;53.156;17.960;2023-05-29T04:56:29;14.50;94.20
17726;DHT22;8983;53.156;17.960;2023-05-29T04:58:58;14.50;94.40
17726;DHT22;8983;53.156;17.960;2023-05-29T05:01:26;14.50;94.40
17726;DHT22;8983;53.156;17.960;2023-05-29T05:03:56;14.50;94.50
17726;DHT22;8983;53.156;17.960;2023-05-29T05:06:24;14.60;94.60
17726;DHT22;8983;53.156;17.960;2023-05-29T05:08:53;14.60;94.70
17726;DHT22;8983;53.156;17.960;2023-05-29T05:11:23;14.70;94.80
17726;DHT22;8983;53.156;17.960;2023-05-29T05:13:53;14.70;94.90
17726;DHT22;8983;53.156;17.960;2023-05-29T05:16:21;14.80;94.90
17726;DHT22;8983;53.156;17.960;2023-05-29T05:18:49;14.80;95.00
17726;DHT22;8983;53.156;17.960;2023-05-29T05:21:17;14.80;95.00
17726;DHT22;8983;53.156;17.960;2023-05-29T05:23:46;14.90;95.10
17726;DHT22;8983;53.156;17.960;2023-05-29T05:26:24;15.00;95.10
17726;DHT22;8983;53.156;17.960;2023-05-29T05:28:55;15.00;95.10
17726;DHT22;8983;53.156;17.960;2023-05-29T05:31:23;15.10;95.10
17726;DHT22;8983;53.156;17.960;2023-05-29T05:33:52;15.10;95.10
17726;DHT22;8983;53.156;17.960;2023-05-29T05:36:20;15.20;95.10
17726;DHT22;8983;53.156;17.960;2023-05-29T05:38:49;15.20;95.00
17726;DHT22;8983;53.156;17.960;2023-05-29T05:41:17;15.30;95.00
17726;DHT22;8983;53.156;17.960;2023-05-29T05:43:45;15.40;94.90
17726;DHT22;8983;53.156;17.960;2023-05-29T05:46:14;15.40;94.80
17726;DHT22;8983;53.156;17.960;2023-05-29T05:48:44;15.50;94.70
17726;DHT22;8983;53.156;17.960;2023-05-29T05:51:13;15.60;94.30
17726;DHT22;8983;53.156;17.960;2023-05-29T05:53:41;15.70;94.10
17726;DHT22;8983;53.156;17.960;2023-05-29T05:56:09;15.70;93.80
17726;DHT22;8983;53.156;17.960;2023-05-29T05:58:37;15.80;93.60
17726;DHT22;8983;53.156;17.960;2023-05-29T06:01:06;15.80;93.40
17726;DHT22;8983;53.156;17.960;2023-05-29T06:03:36;16.00;93.20
17726;DHT22;8983;53.156;17.960;2023-05-29T06:06:05;16.00;93.00
17726;DHT22;8983;53.156;17.960;2023-05-29T06:08:34;16.10;92.70
17726;DHT22;8983;53.156;17.960;2023-05-29T06:11:02;16.10;92.60
17726;DHT22;8983;53.156;17.960;2023-05-29T06:13:30;16.20;92.40
17726;DHT22;8983;53.156;17.960;2023-05-29T06:15:59;16.20;92.10
17726;DHT22;8983;53.156;17.960;2023-05-29T06:18:27;16.30;91.90
17726;DHT22;8983;53.156;17.960;2023-05-29T06:20:57;16.30;91.70
17726;DHT22;8983;53.156;17.960;2023-05-29T06:23:25;16.30;91.70
17726;DHT22;8983;53.156;17.960;2023-05-29T06:25:53;16.30;91.60
17726;DHT22;8983;53.156;17.960;2023-05-29T06:28:21;16.40;91.40
17726;DHT22;8983;53.156;17.960;2023-05-29T06:30:49;16.40;91.30
17726;DHT22;8983;53.156;17.960;2023-05-29T06:33:18;16.50;91.10
17726;DHT22;8983;53.156;17.960;2023-05-29T06:35:47;16.50;91.00
17726;DHT22;8983;53.156;17.960;2023-05-29T06:38:17;16.50;90.90
17726;DHT22;8983;53.156;17.960;2023-05-29T06:40:45;16.60;90.80
17726;DHT22;8983;53.156;17.960;2023-05-29T06:43:13;16.60;90.70
17726;DHT22;8983;53.156;17.960;2023-05-29T06:45:41;16.60;90.70
17726;DHT22;8983;53.156;17.960;2023-05-29T06:48:09;16.60;90.80
17726;DHT22;8983;53.156;17.960;2023-05-29T06:50:37;16.70;90.80
17726;DHT22;8983;53.156;17.960;2023-05-29T06:53:05;16.70;90.80
17726;DHT22;8983;53.156;17.960;2023-05-29T06:55:34;16.80;90.90
17726;DHT22;8983;53.156;17.960;2023-05-29T06:58:03;16.90;91.00
17726;DHT22;8983;53.156;17.960;2023-05-29T07:00:31;16.90;90.80
17726;DHT22;8983;53.156;17.960;2023-05-29T07:03:01;17.00;90.50
17726;DHT22;8983;53.156;17.960;2023-05-29T07:05:30;17.00;90.20
17726;DHT22;8983;53.156;17.960;2023-05-29T07:07:58;17.00;90.00
17726;DHT22;8983;53.156;17.960;2023-05-29T07:10:26;17.10;89.90
17726;DHT22;8983;53.156;17.960;2023-05-29T07:12:55;17.10;89.70
17726;DHT22;8983;53.156;17.960;2023-05-29T07:15:23;17.20;89.80
17726;DHT22;8983;53.156;17.960;2023-05-29T07:17:52;17.20;90.00
17726;DHT22;8983;53.156;17.960;2023-05-29T07:20:20;17.30;89.90
17726;DHT22;8983;53.156;17.960;2023-05-29T07:22:48;17.30;89.50
17726;DHT22;8983;53.156;17.960;2023-05-29T07:25:16;17.30;89.30
17726;DHT22;8983;53.156;17.960;2023-05-29T07:27:44;17.30;89.60
17726;DHT22;8983;53.156;17.960;2023-05-29T07:30:14;17.40;89.50
17726;DHT22;8983;53.156;17.960;2023-05-29T07:32:42;17.40;89.50
17726;DHT22;8983;53.156;17.960;2023-05-29T07:35:10;17.50;89.60
17726;DHT22;8983;53.156;17.960;2023-05-29T07:37:38;17.50;89.30
17726;DHT22;8983;53.156;17.960;2023-05-29T07:40:07;17.60;89.20
17726;DHT22;8983;53.156;17.960;2023-05-29T07:42:35;17.60;89.00
17726;DHT22;8983;53.156;17.960;2023-05-29T07:45:04;17.60;89.00
17726;DHT22;8983;53.156;17.960;2023-05-29T07:47:34;17.70;89.10
17726;DHT22;8983;53.156;17.960;2023-05-29T07:50:05;17.70;89.20
17726;DHT22;8983;53.156;17.960;2023-05-29T07:52:34;17.70;89.20
17726;DHT22;8983;53.156;17.960;2023-05-29T07:55:02;17.80;89.20
17726;DHT22;8983;53.156;17.960;2023-05-29T07:57:31;17.80;89.20
17726;DHT22;8983;53.156;17.960;2023-05-29T07:59:59;17.80;89.00
17726;DHT22;8983;53.156;17.960;2023-05-29T08:02:29;17.80;88.90
17726;DHT22;8983;53.156;17.960;2023-05-29T08:05:00;17.90;88.70
17726;DHT22;8983;53.156;17.960;2023-05-29T08:07:28;18.00;88.70
17726;DHT22;8983;53.156;17.960;2023-05-29T08:09:56;18.00;88.40
17726;DHT22;8983;53.156;17.960;2023-05-29T08:12:24;18.10;88.30
17726;DHT22;8983;53.156;17.960;2023-05-29T08:14:52;18.10;88.10
17726;DHT22;8983;53.156;17.960;2023-05-29T08:17:20;18.10;87.90
17726;DHT22;8983;53.156;17.960;2023-05-29T08:19:48;18.20;87.70
17726;DHT22;8983;53.156;17.960;2023-05-29T08:22:18;18.20;87.40
17726;DHT22;8983;53.156;17.960;2023-05-29T08:24:47;18.30;87.30
17726;DHT22;8983;53.156;17.960;2023-05-29T08:27:15;18.30;86.90
17726;DHT22;8983;53.156;17.960;2023-05-29T08:29:44;18.30;86.40
17726;DHT22;8983;53.156;17.960;2023-05-29T08:32:12;18.20;86.50
17726;DHT22;8983;53.156;17.960;2023-05-29T08:34:40;18.40;86.70
17726;DHT22;8983;53.156;17.960;2023-05-29T08:37:09;18.40;86.50
17726;DHT22;8983;53.156;17.960;2023-05-29T08:39:38;18.50;86.30
17726;DHT22;8983;53.156;17.960;2023-05-29T08:42:10;18.50;85.90
17726;DHT22;8983;53.156;17.960;2023-05-29T08:44:46;18.60;85.90
17726;DHT22;8983;53.156;17.960;2023-05-29T08:47:14;18.60;85.60
17726;DHT22;8983;53.156;17.960;2023-05-29T08:49:52;18.70;85.10
17726;DHT22;8983;53.156;17.960;2023-05-29T08:52:23;18.70;84.40
17726;DHT22;8983;53.156;17.960;2023-05-29T08:54:54;18.80;84.00
17726;DHT22;8983;53.156;17.960;2023-05-29T08:57:22;18.80;83.70
17726;DHT22;8983;53.156;17.960;2023-05-29T08:59:51;19.00;83.30
17726;DHT22;8983;53.156;17.960;2023-05-29T09:02:19;19.10;82.70
17726;DHT22;8983;53.156;17.960;2023-05-29T09:04:48;19.10;81.70
17726;DHT22;8983;53.156;17.960;2023-05-29T09:07:16;19.20;81.10
17726;DHT22;8983;53.156;17.960;2023-05-29T09:09:45;19.10;80.30
17726;DHT22;8983;53.156;17.960;2023-05-29T09:12:16;19.10;79.90
17726;DHT22;8983;53.156;17.960;2023-05-29T09:14:45;19.10;80.40
17726;DHT22;8983;53.156;17.960;2023-05-29T09:17:14;19.10;80.60
17726;DHT22;8983;53.156;17.960;2023-05-29T09:19:42;19.10;80.70
17726;DHT22;8983;53.156;17.960;2023-05-29T09:22:13;19.10;80.90
17726;DHT22;8983;53.156;17.960;2023-05-29T09:24:43;19.10;81.10
17726;DHT22;8983;53.156;17.960;2023-05-29T09:27:14;19.10;80.50
17726;DHT22;8983;53.156;17.960;2023-05-29T09:29:44;19.10;80.00
17726;DHT22;8983;53.156;17.960;2023-05-29T09:32:17;19.10;79.30
17726;DHT22;8983;53.156;17.960;2023-05-29T09:34:45;19.10;78.90
17726;DHT22;8983;53.156;17.960;2023-05-29T09:37:13;19.20;78.40
17726;DHT22;8983;53.156;17.960;2023-05-29T09:39:47;19.30;78.30
17726;DHT22;8983;53.156;17.960;2023-05-29T09:42:16;19.40;78.10
17726;DHT22;8983;53.156;17.960;2023-05-29T09:44:48;19.50;77.70
17726;DHT22;8983;53.156;17.960;2023-05-29T09:47:19;19.70;77.90
17726;DHT22;8983;53.156;17.960;2023-05-29T09:49:47;19.80;77.50
17726;DHT22;8983;53.156;17.960;2023-05-29T09:52:21;19.90;76.60
17726;DHT22;8983;53.156;17.960;2023-05-29T09:54:50;20.00;75.80
17726;DHT22;8983;53.156;17.960;2023-05-29T09:57:20;19.90;75.40
17726;DHT22;8983;53.156;17.960;2023-05-29T09:59:52;19.90;75.20
17726;DHT22;8983;53.156;17.960;2023-05-29T10:02:20;19.90;75.30
17726;DHT22;8983;53.156;17.960;2023-05-29T10:04:49;20.00;75.20
17726;DHT22;8983;53.156;17.960;2023-05-29T10:07:22;20.20;74.80
17726;DHT22;8983;53.156;17.960;2023-05-29T10:09:59;20.40;74.20
17726;DHT22;8983;53.156;17.960;2023-05-29T10:12:29;20.50;73.70
17726;DHT22;8983;53.156;17.960;2023-05-29T10:15:02;20.60;73.30
17726;DHT22;8983;53.156;17.960;2023-05-29T10:17:33;20.60;72.50
17726;DHT22;8983;53.156;17.960;2023-05-29T10:20:05;20.70;72.20
17726;DHT22;8983;53.156;17.960;2023-05-29T10:22:35;20.90;72.30
17726;DHT22;8983;53.156;17.960;2023-05-29T10:25:09;20.90;71.60
17726;DHT22;8983;53.156;17.960;2023-05-29T10:27:37;20.90;70.80
17726;DHT22;8983;53.156;17.960;2023-05-29T10:30:12;20.80;70.70
17726;DHT22;8983;53.156;17.960;2023-05-29T10:32:56;20.70;70.40
17726;DHT22;8983;53.156;17.960;2023-05-29T10:35:31;20.70;70.50
17726;DHT22;8983;53.156;17.960;2023-05-29T10:38:10;20.70;71.00
17726;DHT22;8983;53.156;17.960;2023-05-29T10:40:39;20.80;70.50
17726;DHT22;8983;53.156;17.960;2023-05-29T10:43:07;20.80;69.50
17726;DHT22;8983;53.156;17.960;2023-05-29T10:45:51;20.80;68.80
17726;DHT22;8983;53.156;17.960;2023-05-29T10:48:39;20.80;68.40
17726;DHT22;8983;53.156;17.960;2023-05-29T10:51:10;20.90;68.10
17726;DHT22;8983;53.156;17.960;2023-05-29T10:53:51;21.10;67.80
17726;DHT22;8983;53.156;17.960;2023-05-29T10:56:28;21.20;67.40
17726;DHT22;8983;53.156;17.960;2023-05-29T10:58:58;21.30;67.20
17726;DHT22;8983;53.156;17.960;2023-05-29T11:01:29;21.70;67.30
17726;DHT22;8983;53.156;17.960;2023-05-29T11:04:25;22.10;66.80
17726;DHT22;8983;53.156;17.960;2023-05-29T11:06:53;22.50;65.90
17726;DHT22;8983;53.156;17.960;2023-05-29T11:09:30;23.10;65.00
17726;DHT22;8983;53.156;17.960;2023-05-29T11:12:12;23.40;63.20
17726;DHT22;8983;53.156;17.960;2023-05-29T11:14:47;23.30;62.30
17726;DHT22;8983;53.156;17.960;2023-05-29T11:17:30;23.40;62.50
17726;DHT22;8983;53.156;17.960;2023-05-29T11:20:02;23.80;62.30
17726;DHT22;8983;53.156;17.960;2023-05-29T11:22:58;24.20;61.00
17726;DHT22;8983;53.156;17.960;2023-05-29T11:25:28;24.80;59.00
17726;DHT22;8983;53.156;17.960;2023-05-29T11:27:56;25.20;58.40
17726;DHT22;8983;53.156;17.960;2023-05-29T11:30:24;25.70;57.40
17726;DHT22;8983;53.156;17.960;2023-05-29T11:32:57;26.00;56.50
17726;DHT22;8983;53.156;17.960;2023-05-29T11:35:30;26.30;56.10
17726;DHT22;8983;53.156;17.960;2023-05-29T11:37:58;26.20;55.30
17726;DHT22;8983;53.156;17.960;2023-05-29T11:40:35;25.90;55.20
17726;DHT22;8983;53.156;17.960;2023-05-29T11:43:03;25.80;55.00
17726;DHT22;8983;53.156;17.960;2023-05-29T11:45:32;25.80;54.70
17726;DHT22;8983;53.156;17.960;2023-05-29T11:48:03;26.10;54.40
17726;DHT22;8983;53.156;17.960;2023-05-29T11:50:33;26.40;53.60
17726;DHT22;8983;53.156;17.960;2023-05-29T11:53:01;26.60;53.10
17726;DHT22;8983;53.156;17.960;2023-05-29T11:55:29;26.80;52.80
17726;DHT22;8983;53.156;17.960;2023-05-29T11:57:58;26.90;52.50
17726;DHT22;8983;53.156;17.960;2023-05-29T12:00:30;26.70;52.10
17726;DHT22;8983;53.156;17.960;2023-05-29T12:02:58;26.20;51.90
17726;DHT22;8983;53.156;17.960;2023-05-29T12:05:32;25.80;51.80
17726;DHT22;8983;53.156;17.960;2023-05-29T12:08:00;25.70;51.90
17726;DHT22;8983;53.156;17.960;2023-05-29T12:10:31;25.80;51.70
17726;DHT22;8983;53.156;17.960;2023-05-29T12:12:59;25.80;51.10
17726;DHT22;8983;53.156;17.960;2023-05-29T12:15:28;25.90;50.60
17726;DHT22;8983;53.156;17.960;2023-05-29T12:17:56;26.00;50.60
17726;DHT22;8983;53.156;17.960;2023-05-29T12:20:25;26.10;50.30
17726;DHT22;8983;53.156;17.960;2023-05-29T12:23:00;26.10;50.00
17726;DHT22;8983;53.156;17.960;2023-05-29T12:25:28;26.10;50.60
17726;DHT22;8983;53.156;17.960;2023-05-29T12:27:57;26.10;50.40
17726;DHT22;8983;53.156;17.960;2023-05-29T12:30:25;26.30;50.50
17726;DHT22;8983;53.156;17.960;2023-05-29T12:33:00;26.40;50.10
17726;DHT22;8983;53.156;17.960;2023-05-29T12:35:30;26.40;49.80
17726;DHT22;8983;53.156;17.960;2023-05-29T12:38:00;26.60;50.00
17726;DHT22;8983;53.156;17.960;2023-05-29T12:40:30;26.90;49.80
17726;DHT22;8983;53.156;17.960;2023-05-29T12:43:01;27.00;49.30
17726;DHT22;8983;53.156;17.960;2023-05-29T12:45:31;27.20;49.00
17726;DHT22;8983;53.156;17.960;2023-05-29T12:48:00;27.30;48.60
17726;DHT22;8983;53.156;17.960;2023-05-29T12:50:30;27.50;48.30
17726;DHT22;8983;53.156;17.960;2023-05-29T12:53:01;27.80;48.20
17726;DHT22;8983;53.156;17.960;2023-05-29T12:55:31;28.30;48.00
17726;DHT22;8983;53.156;17.960;2023-05-29T12:58:03;28.60;47.30
17726;DHT22;8983;53.156;17.960;2023-05-29T13:00:33;28.90;46.70
17726;DHT22;8983;53.156;17.960;2023-05-29T13:03:01;28.90;46.30
17726;DHT22;8983;53.156;17.960;2023-05-29T13:05:29;28.60;46.20
17726;DHT22;8983;53.156;17.960;2023-05-29T13:07:58;28.70;46.20
17726;DHT22;8983;53.156;17.960;2023-05-29T13:10:28;29.00;45.80
17726;DHT22;8983;53.156;17.960;2023-05-29T13:12:56;29.30;45.30
17726;DHT22;8983;53.156;17.960;2023-05-29T13:15:26;29.50;44.70
17726;DHT22;8983;53.156;17.960;2023-05-29T13:17:54;29.80;44.60
17726;DHT22;8983;53.156;17.960;2023-05-29T13:20:22;30.20;44.30
17726;DHT22;8983;53.156;17.960;2023-05-29T13:22:50;30.60;44.10
17726;DHT22;8983;53.156;17.960;2023-05-29T13:25:21;30.90;43.70
17726;DHT22;8983;53.156;17.960;2023-05-29T13:27:52;30.90;43.00
17726;DHT22;8983;53.156;17.960;2023-05-29T13:30:20;30.70;42.80
17726;DHT22;8983;53.156;17.960;2023-05-29T13:32:50;30.70;42.70
17726;DHT22;8983;53.156;17.960;2023-05-29T13:35:19;30.70;42.60
17726;DHT22;8983;53.156;17.960;2023-05-29T13:37:47;30.50;42.30
17726;DHT22;8983;53.156;17.960;2023-05-29T13:40:15;30.30;42.20
17726;DHT22;8983;53.156;17.960;2023-05-29T13:42:44;30.20;42.40
17726;DHT22;8983;53.156;17.960;2023-05-29T13:45:13;30.10;42.30
17726;DHT22;8983;53.156;17.960;2023-05-29T13:47:41;30.00;42.30
17726;DHT22;8983;53.156;17.960;2023-05-29T13:50:10;29.90;42.50
17726;DHT22;8983;53.156;17.960;2023-05-29T13:52:38;29.70;42.70
17726;DHT22;8983;53.156;17.960;2023-05-29T13:55:07;29.30;42.80
17726;DHT22;8983;53.156;17.960;2023-05-29T13:57:36;28.90;42.90
17726;DHT22;8983;53.156;17.960;2023-05-29T14:00:05;28.50;43.10
17726;DHT22;8983;53.156;17.960;2023-05-29T14:02:37;28.30;43.30
17726;DHT22;8983;53.156;17.960;2023-05-29T14:05:06;28.20;43.40
17726;DHT22;8983;53.156;17.960;2023-05-29T14:07:34;28.30;43.50
17726;DHT22;8983;53.156;17.960;2023-05-29T14:10:03;28.60;43.50
17726;DHT22;8983;53.156;17.960;2023-05-29T14:12:31;28.90;43.30
17726;DHT22;8983;53.156;17.960;2023-05-29T14:14:59;29.20;43.10
17726;DHT22;8983;53.156;17.960;2023-05-29T14:17:28;29.50;43.00
17726;DHT22;8983;53.156;17.960;2023-05-29T14:19:58;29.60;42.60
17726;DHT22;8983;53.156;17.960;2023-05-29T14:22:28;29.60;42.50
17726;DHT22;8983;53.156;17.960;2023-05-29T14:24:56;29.70;42.40
17726;DHT22;8983;53.156;17.960;2023-05-29T14:27:25;29.70;42.50
17726;DHT22;8983;53.156;17.960;2023-05-29T14:29:53;29.90;42.30
17726;DHT22;8983;53.156;17.960;2023-05-29T14:32:21;30.00;42.20
17726;DHT22;8983;53.156;17.960;2023-05-29T14:34:50;30.10;41.90
17726;DHT22;8983;53.156;17.960;2023-05-29T14:37:20;30.00;42.50
17726;DHT22;8983;53.156;17.960;2023-05-29T14:39:48;30.10;41.80
17726;DHT22;8983;53.156;17.960;2023-05-29T14:42:16;30.30;41.70
17726;DHT22;8983;53.156;17.960;2023-05-29T14:44:44;30.40;41.50
17726;DHT22;8983;53.156;17.960;2023-05-29T14:47:12;30.60;41.30
17726;DHT22;8983;53.156;17.960;2023-05-29T14:49:40;31.00;41.00
17726;DHT22;8983;53.156;17.960;2023-05-29T14:52:09;31.30;40.90
17726;DHT22;8983;53.156;17.960;2023-05-29T14:54:38;31.50;40.70
17726;DHT22;8983;53.156;17.960;2023-05-29T14:57:06;31.50;41.30
17726;DHT22;8983;53.156;17.960;2023-05-29T14:59:34;31.50;40.70
17726;DHT22;8983;53.156;17.960;2023-05-29T15:02:02;31.50;40.90
17726;DHT22;8983;53.156;17.960;2023-05-29T15:04:31;31.50;40.70
17726;DHT22;8983;53.156;17.960;2023-05-29T15:06:59;31.50;40.40
17726;DHT22;8983;53.156;17.960;2023-05-29T15:09:32;31.00;40.30
17726;DHT22;8983;53.156;17.960;2023-05-29T15:12:02;30.50;40.70
17726;DHT22;8983;53.156;17.960;2023-05-29T15:14:31;30.30;41.00
17726;DHT22;8983;53.156;17.960;2023-05-29T15:16:59;30.20;41.20
17726;DHT22;8983;53.156;17.960;2023-05-29T15:19:28;30.30;41.20
17726;DHT22;8983;53.156;17.960;2023-05-29T15:21:56;30.10;41.00
17726;DHT22;8983;53.156;17.960;2023-05-29T15:24:24;29.70;41.20
17726;DHT22;8983;53.156;17.960;2023-05-29T15:26:52;29.70;41.60
17726;DHT22;8983;53.156;17.960;2023-05-29T15:29:22;29.90;41.60
17726;DHT22;8983;53.156;17.960;2023-05-29T15:31:50;30.00;41.80
17726;DHT22;8983;53.156;17.960;2023-05-29T15:34:18;30.00;41.10
17726;DHT22;8983;53.156;17.960;2023-05-29T15:36:49;29.80;41.40
17726;DHT22;8983;53.156;17.960;2023-05-29T15:39:17;29.90;41.50
17726;DHT22;8983;53.156;17.960;2023-05-29T15:41:45;30.10;41.50
17726;DHT22;8983;53.156;17.960;2023-05-29T15:44:13;30.30;41.30
17726;DHT22;8983;53.156;17.960;2023-05-29T15:46:43;30.70;41.20